sensor_id;sensor_type;location;lat;lon;timestamp;temperature;humidity
4356;DHT22;64374;51.482;7.408;2023-09-19T00:02:04;18.30;99.90
4356;DHT22;64374;51.482;7.408;2023-09-19T00:04:37;18.40;99.90
4356;DHT22;64374;51.482;7.408;2023-09-19T00:07:07;18.60;99.90
4356;DHT22;64374;51.482;7.408;2023-09-19T00:09:36;18.30;99.90
4356;DHT22;64374;51.482;7.408;2023-09-19T00:12:06;18.40;99.90
4356;DHT22;64374;51.482;7.408;2023-09-19T00:14:36;18.40;99.90
4356;DHT22;64374;51.482;7.408;2023-09-19T00:17:05;18.40;99.90
4356;DHT22;64374;51.482;7.408;2023-09-19T00:19:36;17.50;99.90
4356;DHT22;64374;51.482;7.408;2023-09-19T00:22:05;17.80;99.90
4356;DHT22;64374;51.482;7.408;2023-09-19T00:24:34;17.50;99.90
4356;DHT22;64374;51.482;7.408;2023-09-19T00:27:02;17.90;99.90
4356;DHT22;64374;51.482;7.408;2023-09-19T00:29:32;18.30;99.90
4356;DHT22;64374;51.482;7.408;2023-09-19T00:32:00;18.10;99.90
4356;DHT22;64374;51.482;7.408;2023-09-19T00:34:50;18.40;99.90
4356;DHT22;64374;51.482;7.408;2023-09-19T00:37:37;18.70;99.90
4356;DHT22;64374;51.482;7.408;2023-09-19T00:40:26;18.60;99.90
4356;DHT22;64374;51.482;7.408;2023-09-19T00:43:13;18.10;99.90
4356;DHT22;64374;51.482;7.408;2023-09-19T00:46:00;17.90;99.90
4356;DHT22;64374;51.482;7.408;2023-09-19T00:48:48;17.70;99.90
4356;DHT22;64374;51.482;7.408;2023-09-19T00:51:36;17.80;99.90
4356;DHT22;64374;51.482;7.408;2023-09-19T00:54:23;18.20;99.90
4356;DHT22;64374;51.482;7.408;2023-09-19T00:57:11;17.40;99.90
4356;DHT22;64374;51.482;7.408;2023-09-19T00:59:58;17.80;99.90
4356;DHT22;64374;51.482;7.408;2023-09-19T01:02:46;17.90;99.90
4356;DHT22;64374;51.482;7.408;2023-09-19T01:05:33;17.50;99.90
4356;DHT22;64374;51.482;7.408;2023-09-19T01:08:22;17.50;99.90
4356;DHT22;64374;51.482;7.408;2023-09-19T01:11:14;17.10;99.90
4356;DHT22;64374;51.482;7.408;2023-09-19T01:14:12;17.50;99.90
4356;DHT22;64374;51.482;7.408;2023-09-19T01:17:06;17.60;99.90
4356;DHT22;64374;51.482;7.408;2023-09-19T01:20:11;17.70;99.90
4356;DHT22;64374;51.482;7.408;2023-09-19T01:23:12;17.40;99.90
4356;DHT22;64374;51.482;7.408;2023-09-19T01:26:29;17.40;99.90
4356;DHT22;64374;51.482;7.408;2023-09-19T01:29:37;17.40;99.90
4356;DHT22;64374;51.482;7.408;2023-09-19T01:32:26;17.40;99.90
4356;DHT22;64374;51.482;7.408;2023-09-19T01:35:14;17.50;99.90
4356;DHT22;64374;51.482;7.408;2023-09-19T01:38:00;17.80;99.90
4356;DHT22;64374;51.482;7.408;2023-09-19T01:40:57;17.90;99.90
4356;DHT22;64374;51.482;7.408;2023-09-19T01:43:49;17.90;99.90
4356;DHT22;64374;51.482;7.408;2023-09-19T01:46:40;18.00;99.90
4356;DHT22;64374;51.482;7.408;2023-09-19T01:49:36;17.70;99.90
4356;DHT22;64374;51.482;7.408;2023-09-19T01:52:30;18.00;99.90
4356;DHT22;64374;51.482;7.408;2023-09-19T01:55:19;17.50;99.90
4356;DHT22;64374;51.482;7.408;2023-09-19T01:58:12;17.70;99.90
4356;DHT22;64374;51.482;7.408;2023-09-19T02:01:01;17.00;99.90
4356;DHT22;64374;51.482;7.408;2023-09-19T02:03:48;17.40;99.90
4356;DHT22;64374;51.482;7.408;2023-09-19T02:06:39;17.40;99.90
4356;DHT22;64374;51.482;7.408;2023-09-19T02:09:26;17.30;99.90
4356;DHT22;64374;51.482;7.408;2023-09-19T02:12:13;16.80;99.90
4356;DHT22;64374;51.482;7.408;2023-09-19T02:15:03;16.80;99.90
4356;DHT22;64374;51.482;7.408;2023-09-19T02:17:33;17.00;99.90
4356;DHT22;64374;51.482;7.408;2023-09-19T02:20:02;16.90;99.90
4356;DHT22;64374;51.482;7.408;2023-09-19T02:22:40;16.80;99.90
4356;DHT22;64374;51.482;7.408;2023-09-19T02:25:08;17.10;99.90
4356;DHT22;64374;51.482;7.408;2023-09-19T02:27:36;16.90;99.90
4356;DHT22;64374;51.482;7.408;2023-09-19T02:30:07;17.00;99.90
4356;DHT22;64374;51.482;7.408;2023-09-19T02:32:35;17.10;99.90
4356;DHT22;64374;51.482;7.408;2023-09-19T02:35:07;17.00;99.90
4356;DHT22;64374;51.482;7.408;2023-09-19T02:37:39;16.80;99.90
4356;DHT22;64374;51.482;7.408;2023-09-19T02:40:08;16.80;99.90
4356;DHT22;64374;51.482;7.408;2023-09-19T02:42:46;16.80;99.90
4356;DHT22;64374;51.482;7.408;2023-09-19T02:45:17;17.00;99.90
4356;DHT22;64374;51.482;7.408;2023-09-19T02:47:47;16.80;99.90
4356;DHT22;64374;51.482;7.408;2023-09-19T02:50:35;16.80;99.90
4356;DHT22;64374;51.482;7.408;2023-09-19T02:53:23;16.80;99.90
4356;DHT22;64374;51.482;7.408;2023-09-19T02:56:10;16.90;99.90
4356;DHT22;64374;51.482;7.408;2023-09-19T02:59:00;16.90;99.90
4356;DHT22;64374;51.482;7.408;2023-09-19T03:01:47;16.40;99.90
4356;DHT22;64374;51.482;7.408;2023-09-19T03:04:34;16.60;99.90
4356;DHT22;64374;51.482;7.408;2023-09-19T03:07:22;17.00;99.90
4356;DHT22;64374;51.482;7.408;2023-09-19T03:10:10;16.70;99.90
4356;DHT22;64374;51.482;7.408;2023-09-19T03:12:57;16.90;99.90
4356;DHT22;64374;51.482;7.408;2023-09-19T03:15:45;16.90;99.90
4356;DHT22;64374;51.482;7.408;2023-09-19T03:18:39;17.00;99.90
4356;DHT22;64374;51.482;7.408;2023-09-19T03:21:26;17.20;99.90
4356;DHT22;64374;51.482;7.408;2023-09-19T03:24:15;17.10;99.90
4356;DHT22;64374;51.482;7.408;2023-09-19T03:27:04;17.30;99.90
4356;DHT22;64374;51.482;7.408;2023-09-19T03:29:51;17.20;99.90
4356;DHT22;64374;51.482;7.408;2023-09-19T03:32:44;17.30;99.90
4356;DHT22;64374;51.482;7.408;2023-09-19T03:35:32;17.40;99.90
4356;DHT22;64374;51.482;7.408;2023-09-19T03:38:20;16.50;99.90
4356;DHT22;64374;51.482;7.408;2023-09-19T03:41:08;16.70;99.90
4356;DHT22;64374;51.482;7.408;2023-09-19T03:43:56;16.30;99.90
4356;DHT22;64374;51.482;7.408;2023-09-19T03:46:44;16.80;99.90
4356;DHT22;64374;51.482;7.408;2023-09-19T03:49:31;16.60;99.90
4356;DHT22;64374;51.482;7.408;2023-09-19T03:52:18;16.60;99.90
4356;DHT22;64374;51.482;7.408;2023-09-19T03:55:05;16.60;99.90
4356;DHT22;64374;51.482;7.408;2023-09-19T03:57:52;16.40;99.90
4356;DHT22;64374;51.482;7.408;2023-09-19T04:00:39;16.90;99.90
4356;DHT22;64374;51.482;7.408;2023-09-19T04:03:26;17.30;99.90
4356;DHT22;64374;51.482;7.408;2023-09-19T04:06:21;17.20;99.90
4356;DHT22;64374;51.482;7.408;2023-09-19T04:09:08;17.30;99.90
4356;DHT22;64374;51.482;7.408;2023-09-19T04:11:56;17.10;99.90
4356;DHT22;64374;51.482;7.408;2023-09-19T04:14:43;16.90;99.90
4356;DHT22;64374;51.482;7.408;2023-09-19T04:17:31;16.80;99.90
4356;DHT22;64374;51.482;7.408;2023-09-19T04:20:19;17.00;99.90
4356;DHT22;64374;51.482;7.408;2023-09-19T04:23:07;16.80;99.90
4356;DHT22;64374;51.482;7.408;2023-09-19T04:25:55;17.10;99.90
4356;DHT22;64374;51.482;7.408;2023-09-19T04:28:42;16.80;99.90
4356;DHT22;64374;51.482;7.408;2023-09-19T04:31:30;16.90;99.90
4356;DHT22;64374;51.482;7.408;2023-09-19T04:34:18;17.10;99.90
4356;DHT22;64374;51.482;7.408;2023-09-19T04:37:05;16.90;99.90
4356;DHT22;64374;51.482;7.408;2023-09-19T04:39:51;16.50;99.90
4356;DHT22;64374;51.482;7.408;2023-09-19T04:42:40;16.70;99.90
4356;DHT22;64374;51.482;7.408;2023-09-19T04:45:28;17.00;99.90
4356;DHT22;64374;51.482;7.408;2023-09-19T04:48:15;16.60;99.90
4356;DHT22;64374;51.482;7.408;2023-09-19T04:51:03;16.90;99.90
4356;DHT22;64374;51.482;7.408;2023-09-19T04:53:50;16.00;99.90
4356;DHT22;64374;51.482;7.408;2023-09-19T04:56:37;16.50;99.90
4356;DHT22;64374;51.482;7.408;2023-09-19T04:59:25;16.70;99.90
4356;DHT22;64374;51.482;7.408;2023-09-19T05:02:13;16.70;99.90
4356;DHT22;64374;51.482;7.408;2023-09-19T05:05:00;16.40;99.90
4356;DHT22;64374;51.482;7.408;2023-09-19T05:07:50;16.40;99.90
4356;DHT22;64374;51.482;7.408;2023-09-19T05:10:39;16.80;99.90
4356;DHT22;64374;51.482;7.408;2023-09-19T05:13:26;16.70;99.90
4356;DHT22;64374;51.482;7.408;2023-09-19T05:16:12;16.60;99.90
4356;DHT22;64374;51.482;7.408;2023-09-19T05:18:59;16.40;99.90
4356;DHT22;64374;51.482;7.408;2023-09-19T05:21:49;16.30;99.90
4356;DHT22;64374;51.482;7.408;2023-09-19T05:24:36;16.60;99.90
4356;DHT22;64374;51.482;7.408;2023-09-19T05:27:26;16.60;99.90
4356;DHT22;64374;51.482;7.408;2023-09-19T05:30:13;16.80;99.90
4356;DHT22;64374;51.482;7.408;2023-09-19T05:33:02;17.10;99.90
4356;DHT22;64374;51.482;7.408;2023-09-19T05:35:50;17.30;99.90
4356;DHT22;64374;51.482;7.408;2023-09-19T05:38:37;17.00;99.90
4356;DHT22;64374;51.482;7.408;2023-09-19T05:41:27;16.90;99.90
4356;DHT22;64374;51.482;7.408;2023-09-19T05:44:14;16.70;99.90
4356;DHT22;64374;51.482;7.408;2023-09-19T05:47:00;16.60;99.90
4356;DHT22;64374;51.482;7.408;2023-09-19T05:49:48;16.60;99.90
4356;DHT22;64374;51.482;7.408;2023-09-19T05:52:36;16.40;99.90
4356;DHT22;64374;51.482;7.408;2023-09-19T05:55:23;16.70;99.90
4356;DHT22;64374;51.482;7.408;2023-09-19T05:58:11;17.00;99.90
4356;DHT22;64374;51.482;7.408;2023-09-19T06:00:59;16.60;99.90
4356;DHT22;64374;51.482;7.408;2023-09-19T06:03:47;16.80;99.90
4356;DHT22;64374;51.482;7.408;2023-09-19T06:06:33;16.70;99.90
4356;DHT22;64374;51.482;7.408;2023-09-19T06:09:24;16.40;99.90
4356;DHT22;64374;51.482;7.408;2023-09-19T06:12:13;16.60;99.90
4356;DHT22;64374;51.482;7.408;2023-09-19T06:15:03;16.70;99.90
4356;DHT22;64374;51.482;7.408;2023-09-19T06:17:52;16.10;99.90
4356;DHT22;64374;51.482;7.408;2023-09-19T06:20:41;16.20;99.90
4356;DHT22;64374;51.482;7.408;2023-09-19T06:23:31;16.20;99.90
4356;DHT22;64374;51.482;7.408;2023-09-19T06:26:17;16.70;99.90
4356;DHT22;64374;51.482;7.408;2023-09-19T06:29:06;16.70;99.90
4356;DHT22;64374;51.482;7.408;2023-09-19T06:31:55;16.80;99.90
4356;DHT22;64374;51.482;7.408;2023-09-19T06:34:42;16.60;99.90
4356;DHT22;64374;51.482;7.408;2023-09-19T06:37:29;16.70;99.90
4356;DHT22;64374;51.482;7.408;2023-09-19T06:40:16;16.60;99.90
4356;DHT22;64374;51.482;7.408;2023-09-19T06:43:05;16.10;99.90
4356;DHT22;64374;51.482;7.408;2023-09-19T06:45:52;16.20;99.90
4356;DHT22;64374;51.482;7.408;2023-09-19T06:48:41;16.20;99.90
4356;DHT22;64374;51.482;7.408;2023-09-19T06:51:29;16.20;99.90
4356;DHT22;64374;51.482;7.408;2023-09-19T06:54:18;16.40;99.90
4356;DHT22;64374;51.482;7.408;2023-09-19T06:57:04;16.50;99.90
4356;DHT22;64374;51.482;7.408;2023-09-19T06:59:51;16.30;99.90
4356;DHT22;64374;51.482;7.408;2023-09-19T07:02:37;16.00;99.90
4356;DHT22;64374;51.482;7.408;2023-09-19T07:05:27;15.90;99.90
4356;DHT22;64374;51.482;7.408;2023-09-19T07:08:14;16.20;99.90
4356;DHT22;64374;51.482;7.408;2023-09-19T07:11:01;16.70;99.90
4356;DHT22;64374;51.482;7.408;2023-09-19T07:13:51;16.70;99.90
4356;DHT22;64374;51.482;7.408;2023-09-19T07:16:38;16.80;99.90
4356;DHT22;64374;51.482;7.408;2023-09-19T07:19:28;16.50;99.90
4356;DHT22;64374;51.482;7.408;2023-09-19T07:22:17;16.50;99.90
4356;DHT22;64374;51.482;7.408;2023-09-19T07:25:04;16.70;99.90
4356;DHT22;64374;51.482;7.408;2023-09-19T07:27:50;16.40;99.90
4356;DHT22;64374;51.482;7.408;2023-09-19T07:30:37;16.30;99.90
4356;DHT22;64374;51.482;7.408;2023-09-19T07:33:24;16.30;99.90
4356;DHT22;64374;51.482;7.408;2023-09-19T07:36:12;16.40;99.90
4356;DHT22;64374;51.482;7.408;2023-09-19T07:39:00;16.40;99.90
4356;DHT22;64374;51.482;7.408;2023-09-19T07:42:07;16.10;99.90
4356;DHT22;64374;51.482;7.408;2023-09-19T07:44:54;16.20;99.90
4356;DHT22;64374;51.482;7.408;2023-09-19T07:47:44;16.40;99.90
4356;DHT22;64374;51.482;7.408;2023-09-19T07:50:34;16.80;99.90
4356;DHT22;64374;51.482;7.408;2023-09-19T07:53:25;16.60;99.90
4356;DHT22;64374;51.482;7.408;2023-09-19T07:56:14;16.80;99.90
4356;DHT22;64374;51.482;7.408;2023-09-19T07:59:01;16.90;99.90
4356;DHT22;64374;51.482;7.408;2023-09-19T08:01:48;16.90;99.90
4356;DHT22;64374;51.482;7.408;2023-09-19T08:04:35;17.10;99.90
4356;DHT22;64374;51.482;7.408;2023-09-19T08:07:23;16.60;99.90
4356;DHT22;64374;51.482;7.408;2023-09-19T08:10:10;16.70;99.90
4356;DHT22;64374;51.482;7.408;2023-09-19T08:12:59;16.70;99.90
4356;DHT22;64374;51.482;7.408;2023-09-19T08:15:47;16.90;99.90
4356;DHT22;64374;51.482;7.408;2023-09-19T08:18:34;17.30;99.90
4356;DHT22;64374;51.482;7.408;2023-09-19T08:21:21;17.20;99.90
4356;DHT22;64374;51.482;7.408;2023-09-19T08:24:13;17.00;99.90
4356;DHT22;64374;51.482;7.408;2023-09-19T08:27:04;16.50;99.90
4356;DHT22;64374;51.482;7.408;2023-09-19T08:29:54;16.40;99.90
4356;DHT22;64374;51.482;7.408;2023-09-19T08:32:40;16.40;99.90
4356;DHT22;64374;51.482;7.408;2023-09-19T08:35:28;16.70;99.90
4356;DHT22;64374;51.482;7.408;2023-09-19T08:38:15;16.80;99.90
4356;DHT22;64374;51.482;7.408;2023-09-19T08:41:06;16.50;99.90
4356;DHT22;64374;51.482;7.408;2023-09-19T08:43:53;16.70;99.90
4356;DHT22;64374;51.482;7.408;2023-09-19T08:46:42;16.80;99.90
4356;DHT22;64374;51.482;7.408;2023-09-19T08:49:37;17.00;99.90
4356;DHT22;64374;51.482;7.408;2023-09-19T08:52:30;17.20;99.90
4356;DHT22;64374;51.482;7.408;2023-09-19T08:55:19;17.00;99.90
4356;DHT22;64374;51.482;7.408;2023-09-19T08:58:10;17.00;99.90
4356;DHT22;64374;51.482;7.408;2023-09-19T09:01:00;17.50;99.90
4356;DHT22;64374;51.482;7.408;2023-09-19T09:03:49;17.10;99.90
4356;DHT22;64374;51.482;7.408;2023-09-19T09:06:36;17.20;99.90
4356;DHT22;64374;51.482;7.408;2023-09-19T09:09:25;17.50;99.90
4356;DHT22;64374;51.482;7.408;2023-09-19T09:12:12;17.60;99.90
4356;DHT22;64374;51.482;7.408;2023-09-19T09:15:00;17.60;99.90
4356;DHT22;64374;51.482;7.408;2023-09-19T09:17:51;17.30;99.90
4356;DHT22;64374;51.482;7.408;2023-09-19T09:20:40;17.60;99.90
4356;DHT22;64374;51.482;7.408;2023-09-19T09:23:30;17.80;99.90
4356;DHT22;64374;51.482;7.408;2023-09-19T09:26:17;17.70;99.90
4356;DHT22;64374;51.482;7.408;2023-09-19T09:29:12;17.50;99.90
4356;DHT22;64374;51.482;7.408;2023-09-19T09:32:17;17.60;99.90
4356;DHT22;64374;51.482;7.408;2023-09-19T09:35:07;18.00;99.90
4356;DHT22;64374;51.482;7.408;2023-09-19T09:38:00;17.60;99.90
4356;DHT22;64374;51.482;7.408;2023-09-19T09:40:53;17.90;99.90
4356;DHT22;64374;51.482;7.408;2023-09-19T09:43:45;18.30;99.90
4356;DHT22;64374;51.482;7.408;2023-09-19T09:46:34;18.60;99.90
4356;DHT22;64374;51.482;7.408;2023-09-19T09:49:38;18.30;99.90
4356;DHT22;64374;51.482;7.408;2023-09-19T09:52:25;18.20;99.90
4356;DHT22;64374;51.482;7.408;2023-09-19T09:55:14;18.30;99.90
4356;DHT22;64374;51.482;7.408;2023-09-19T09:58:25;17.90;99.90
4356;DHT22;64374;51.482;7.408;2023-09-19T10:01:15;18.50;99.90
4356;DHT22;64374;51.482;7.408;2023-09-19T10:04:03;18.30;99.90
4356;DHT22;64374;51.482;7.408;2023-09-19T10:06:52;18.50;99.90
4356;DHT22;64374;51.482;7.408;2023-09-19T10:09:45;18.30;99.90
4356;DHT22;64374;51.482;7.408;2023-09-19T10:12:34;18.50;99.90
4356;DHT22;64374;51.482;7.408;2023-09-19T10:15:24;18.60;99.90
4356;DHT22;64374;51.482;7.408;2023-09-19T10:18:16;18.60;99.90
4356;DHT22;64374;51.482;7.408;2023-09-19T10:21:09;19.00;99.90
4356;DHT22;64374;51.482;7.408;2023-09-19T10:23:58;19.00;99.90
4356;DHT22;64374;51.482;7.408;2023-09-19T10:26:45;19.30;99.90
4356;DHT22;64374;51.482;7.408;2023-09-19T10:29:39;19.20;99.90
4356;DHT22;64374;51.482;7.408;2023-09-19T10:32:27;18.90;99.90
4356;DHT22;64374;51.482;7.408;2023-09-19T10:35:15;18.50;99.90
4356;DHT22;64374;51.482;7.408;2023-09-19T10:38:04;18.80;99.90
4356;DHT22;64374;51.482;7.408;2023-09-19T10:40:55;18.50;99.90
4356;DHT22;64374;51.482;7.408;2023-09-19T10:43:30;19.40;99.90
4356;DHT22;64374;51.482;7.408;2023-09-19T10:46:08;19.60;99.90
4356;DHT22;64374;51.482;7.408;2023-09-19T10:48:39;19.60;99.90
4356;DHT22;64374;51.482;7.408;2023-09-19T10:51:14;19.60;99.90
4356;DHT22;64374;51.482;7.408;2023-09-19T10:53:49;19.80;99.90
4356;DHT22;64374;51.482;7.408;2023-09-19T10:56:25;19.40;99.90
4356;DHT22;64374;51.482;7.408;2023-09-19T10:59:06;19.50;99.90
4356;DHT22;64374;51.482;7.408;2023-09-19T11:01:44;19.20;99.90
4356;DHT22;64374;51.482;7.408;2023-09-19T11:04:26;19.20;99.90
4356;DHT22;64374;51.482;7.408;2023-09-19T11:07:07;19.10;99.90
4356;DHT22;64374;51.482;7.408;2023-09-19T11:09:48;19.50;99.90
4356;DHT22;64374;51.482;7.408;2023-09-19T11:12:48;19.50;99.90
4356;DHT22;64374;51.482;7.408;2023-09-19T11:18:57;19.20;99.90
4356;DHT22;64374;51.482;7.408;2023-09-19T11:21:52;19.60;99.90
4356;DHT22;64374;51.482;7.408;2023-09-19T11:24:31;19.60;99.90
4356;DHT22;64374;51.482;7.408;2023-09-19T11:27:11;19.50;99.90
4356;DHT22;64374;51.482;7.408;2023-09-19T11:29:41;19.70;99.90
4356;DHT22;64374;51.482;7.408;2023-09-19T11:32:09;19.80;99.90
4356;DHT22;64374;51.482;7.408;2023-09-19T11:34:48;19.70;99.90
4356;DHT22;64374;51.482;7.408;2023-09-19T11:40:46;19.90;99.90
4356;DHT22;64374;51.482;7.408;2023-09-19T11:43:32;20.10;99.90
4356;DHT22;64374;51.482;7.408;2023-09-19T11:46:21;20.30;99.90
4356;DHT22;64374;51.482;7.408;2023-09-19T11:49:09;20.50;99.90
4356;DHT22;64374;51.482;7.408;2023-09-19T11:52:00;20.10;99.90
4356;DHT22;64374;51.482;7.408;2023-09-19T11:54:54;20.00;99.90
4356;DHT22;64374;51.482;7.408;2023-09-19T11:57:42;20.20;99.90
4356;DHT22;64374;51.482;7.408;2023-09-19T12:00:29;20.50;99.90
4356;DHT22;64374;51.482;7.408;2023-09-19T12:03:16;20.70;99.90
4356;DHT22;64374;51.482;7.408;2023-09-19T12:06:10;20.20;99.90
4356;DHT22;64374;51.482;7.408;2023-09-19T12:09:00;20.40;99.90
4356;DHT22;64374;51.482;7.408;2023-09-19T12:11:48;20.50;99.90
4356;DHT22;64374;51.482;7.408;2023-09-19T12:14:37;20.80;99.90
4356;DHT22;64374;51.482;7.408;2023-09-19T12:17:38;20.90;99.90
4356;DHT22;64374;51.482;7.408;2023-09-19T12:20:42;20.30;99.90
4356;DHT22;64374;51.482;7.408;2023-09-19T12:23:35;20.90;99.90
4356;DHT22;64374;51.482;7.408;2023-09-19T12:26:26;20.60;99.90
4356;DHT22;64374;51.482;7.408;2023-09-19T12:29:15;20.60;99.90
4356;DHT22;64374;51.482;7.408;2023-09-19T12:32:04;20.30;99.90
4356;DHT22;64374;51.482;7.408;2023-09-19T12:34:52;20.40;99.90
4356;DHT22;64374;51.482;7.408;2023-09-19T12:37:22;20.60;99.90
4356;DHT22;64374;51.482;7.408;2023-09-19T12:40:04;20.70;99.90
4356;DHT22;64374;51.482;7.408;2023-09-19T12:42:44;20.60;99.90
4356;DHT22;64374;51.482;7.408;2023-09-19T12:45:32;21.10;99.90
4356;DHT22;64374;51.482;7.408;2023-09-19T12:48:21;20.70;99.90
4356;DHT22;64374;51.482;7.408;2023-09-19T12:51:15;21.40;99.90
4356;DHT22;64374;51.482;7.408;2023-09-19T12:54:08;21.50;99.90
4356;DHT22;64374;51.482;7.408;2023-09-19T12:56:55;21.20;99.90
4356;DHT22;64374;51.482;7.408;2023-09-19T12:59:45;21.20;99.90
4356;DHT22;64374;51.482;7.408;2023-09-19T13:02:32;21.60;99.90
4356;DHT22;64374;51.482;7.408;2023-09-19T13:05:19;21.50;99.90
4356;DHT22;64374;51.482;7.408;2023-09-19T13:08:18;21.30;99.90
4356;DHT22;64374;51.482;7.408;2023-09-19T13:11:08;21.30;99.90
4356;DHT22;64374;51.482;7.408;2023-09-19T13:14:15;21.30;99.90
4356;DHT22;64374;51.482;7.408;2023-09-19T13:17:04;20.80;99.90
4356;DHT22;64374;51.482;7.408;2023-09-19T13:20:01;21.20;99.90
4356;DHT22;64374;51.482;7.408;2023-09-19T13:22:53;21.00;99.90
4356;DHT22;64374;51.482;7.408;2023-09-19T13:25:45;21.50;99.90
4356;DHT22;64374;51.482;7.408;2023-09-19T13:28:38;21.50;99.90
4356;DHT22;64374;51.482;7.408;2023-09-19T13:31:25;21.60;99.90
4356;DHT22;64374;51.482;7.408;2023-09-19T13:34:13;22.00;99.90
4356;DHT22;64374;51.482;7.408;2023-09-19T13:37:01;21.90;99.90
4356;DHT22;64374;51.482;7.408;2023-09-19T13:39:48;21.80;99.90
4356;DHT22;64374;51.482;7.408;2023-09-19T13:42:36;21.80;99.90
4356;DHT22;64374;51.482;7.408;2023-09-19T13:45:22;22.60;99.90
4356;DHT22;64374;51.482;7.408;2023-09-19T13:48:11;22.80;99.90
4356;DHT22;64374;51.482;7.408;2023-09-19T13:50:59;22.30;99.90
4356;DHT22;64374;51.482;7.408;2023-09-19T13:53:45;22.80;99.90
4356;DHT22;64374;51.482;7.408;2023-09-19T13:56:32;23.70;99.90
4356;DHT22;64374;51.482;7.408;2023-09-19T13:59:19;24.80;99.90
4356;DHT22;64374;51.482;7.408;2023-09-19T14:02:07;24.70;99.90
4356;DHT22;64374;51.482;7.408;2023-09-19T14:04:54;23.60;99.90
4356;DHT22;64374;51.482;7.408;2023-09-19T14:07:43;23.90;99.90
4356;DHT22;64374;51.482;7.408;2023-09-19T14:10:30;23.10;99.90
4356;DHT22;64374;51.482;7.408;2023-09-19T14:13:18;21.80;99.90
4356;DHT22;64374;51.482;7.408;2023-09-19T14:16:06;22.70;99.90
4356;DHT22;64374;51.482;7.408;2023-09-19T14:18:54;22.50;99.90
4356;DHT22;64374;51.482;7.408;2023-09-19T14:21:40;22.60;99.90
4356;DHT22;64374;51.482;7.408;2023-09-19T14:24:28;21.60;99.90
4356;DHT22;64374;51.482;7.408;2023-09-19T14:27:15;21.00;99.90
4356;DHT22;64374;51.482;7.408;2023-09-19T14:30:02;21.10;99.90
4356;DHT22;64374;51.482;7.408;2023-09-19T14:32:49;21.00;99.90
4356;DHT22;64374;51.482;7.408;2023-09-19T14:35:37;20.70;99.90
4356;DHT22;64374;51.482;7.408;2023-09-19T14:38:23;20.80;99.90
4356;DHT22;64374;51.482;7.408;2023-09-19T14:41:12;21.10;99.90
4356;DHT22;64374;51.482;7.408;2023-09-19T14:43:58;21.00;99.90
4356;DHT22;64374;51.482;7.408;2023-09-19T14:46:44;21.30;99.90
4356;DHT22;64374;51.482;7.408;2023-09-19T14:49:33;21.40;99.90
4356;DHT22;64374;51.482;7.408;2023-09-19T14:52:20;20.70;99.90
4356;DHT22;64374;51.482;7.408;2023-09-19T14:55:07;20.70;99.90
4356;DHT22;64374;51.482;7.408;2023-09-19T14:58:02;20.60;99.90
4356;DHT22;64374;51.482;7.408;2023-09-19T15:00:48;20.60;99.90
4356;DHT22;64374;51.482;7.408;2023-09-19T15:03:38;20.70;99.90
4356;DHT22;64374;51.482;7.408;2023-09-19T15:06:25;21.10;99.90
4356;DHT22;64374;51.482;7.408;2023-09-19T15:09:12;21.10;99.90
4356;DHT22;64374;51.482;7.408;2023-09-19T15:11:40;20.90;99.90
4356;DHT22;64374;51.482;7.408;2023-09-19T15:14:10;20.20;99.90
4356;DHT22;64374;51.482;7.408;2023-09-19T15:16:38;20.30;99.90
4356;DHT22;64374;51.482;7.408;2023-09-19T15:19:07;20.30;99.90
4356;DHT22;64374;51.482;7.408;2023-09-19T15:21:36;20.20;99.90
4356;DHT22;64374;51.482;7.408;2023-09-19T15:24:06;20.20;99.90
4356;DHT22;64374;51.482;7.408;2023-09-19T15:26:36;20.50;99.90
4356;DHT22;64374;51.482;7.408;2023-09-19T15:29:11;20.90;99.90
4356;DHT22;64374;51.482;7.408;2023-09-19T15:31:40;20.80;99.90
4356;DHT22;64374;51.482;7.408;2023-09-19T15:34:09;20.50;99.90
4356;DHT22;64374;51.482;7.408;2023-09-19T15:36:41;20.30;99.90
4356;DHT22;64374;51.482;7.408;2023-09-19T15:39:09;20.20;99.90
4356;DHT22;64374;51.482;7.408;2023-09-19T15:41:39;19.80;99.90
4356;DHT22;64374;51.482;7.408;2023-09-19T15:44:13;20.20;99.90
4356;DHT22;64374;51.482;7.408;2023-09-19T15:46:42;20.60;99.90
4356;DHT22;64374;51.482;7.408;2023-09-19T15:49:30;20.10;99.90
4356;DHT22;64374;51.482;7.408;2023-09-19T15:52:18;20.40;99.90
4356;DHT22;64374;51.482;7.408;2023-09-19T15:55:05;20.70;99.90
4356;DHT22;64374;51.482;7.408;2023-09-19T15:57:52;20.40;99.90
4356;DHT22;64374;51.482;7.408;2023-09-19T16:00:43;20.40;99.90
4356;DHT22;64374;51.482;7.408;2023-09-19T16:03:30;20.40;99.90
4356;DHT22;64374;51.482;7.408;2023-09-19T16:06:19;20.10;99.90
4356;DHT22;64374;51.482;7.408;2023-09-19T16:09:08;19.90;99.90
4356;DHT22;64374;51.482;7.408;2023-09-19T16:11:56;20.00;99.90
4356;DHT22;64374;51.482;7.408;2023-09-19T16:14:42;20.20;99.90
4356;DHT22;64374;51.482;7.408;2023-09-19T16:17:33;20.00;99.90
4356;DHT22;64374;51.482;7.408;2023-09-19T16:20:21;19.90;99.90
4356;DHT22;64374;51.482;7.408;2023-09-19T16:23:08;19.70;99.90
4356;DHT22;64374;51.482;7.408;2023-09-19T16:26:01;20.00;99.90
4356;DHT22;64374;51.482;7.408;2023-09-19T16:28:51;19.70;99.90
4356;DHT22;64374;51.482;7.408;2023-09-19T16:31:38;19.60;99.90
4356;DHT22;64374;51.482;7.408;2023-09-19T16:34:28;20.00;99.90
4356;DHT22;64374;51.482;7.408;2023-09-19T16:37:14;19.80;99.90
4356;DHT22;64374;51.482;7.408;2023-09-19T16:40:01;20.00;99.90
4356;DHT22;64374;51.482;7.408;2023-09-19T16:42:49;19.70;99.90
4356;DHT22;64374;51.482;7.408;2023-09-19T16:45:35;19.80;99.90
4356;DHT22;64374;51.482;7.408;2023-09-19T16:48:28;19.70;99.90
4356;DHT22;64374;51.482;7.408;2023-09-19T16:51:18;19.80;99.90
4356;DHT22;64374;51.482;7.408;2023-09-19T16:54:07;19.80;99.90
4356;DHT22;64374;51.482;7.408;2023-09-19T16:56:54;20.20;99.90
4356;DHT22;64374;51.482;7.408;2023-09-19T16:59:40;19.90;99.90
4356;DHT22;64374;51.482;7.408;2023-09-19T17:02:27;19.50;99.90
4356;DHT22;64374;51.482;7.408;2023-09-19T17:05:15;19.90;99.90
4356;DHT22;64374;51.482;7.408;2023-09-19T17:08:06;19.60;99.90
4356;DHT22;64374;51.482;7.408;2023-09-19T17:11:00;19.90;99.90
4356;DHT22;64374;51.482;7.408;2023-09-19T17:13:50;19.90;99.90
4356;DHT22;64374;51.482;7.408;2023-09-19T17:16:38;19.50;99.90
4356;DHT22;64374;51.482;7.408;2023-09-19T17:19:25;19.80;99.90
4356;DHT22;64374;51.482;7.408;2023-09-19T17:22:12;19.80;99.90
4356;DHT22;64374;51.482;7.408;2023-09-19T17:25:00;19.60;99.90
4356;DHT22;64374;51.482;7.408;2023-09-19T17:27:46;19.40;99.90
4356;DHT22;64374;51.482;7.408;2023-09-19T17:30:33;19.70;99.90
4356;DHT22;64374;51.482;7.408;2023-09-19T17:33:26;19.80;99.90
4356;DHT22;64374;51.482;7.408;2023-09-19T17:36:14;19.80;99.90
4356;DHT22;64374;51.482;7.408;2023-09-19T17:39:01;19.60;99.90
4356;DHT22;64374;51.482;7.408;2023-09-19T17:41:51;19.60;99.90
4356;DHT22;64374;51.482;7.408;2023-09-19T17:44:37;19.90;99.90
4356;DHT22;64374;51.482;7.408;2023-09-19T17:47:24;20.00;99.90
4356;DHT22;64374;51.482;7.408;2023-09-19T17:50:10;19.90;99.90
4356;DHT22;64374;51.482;7.408;2023-09-19T17:52:58;19.40;99.90
4356;DHT22;64374;51.482;7.408;2023-09-19T17:55:46;19.30;99.90